Time;durP1;ratioP1;P1;durP2;ratioP2;P2;SDS_P1;SDS_P2;PMS_P1;PMS_P2;Temp;Humidity;BMP_temperature;BMP_pressure;BME280_temperature;BME280_humidity;BME280_pressure;Samples;Min_cycle;Max_cycle;Signal;HPM_P1;HPM_P2
2023/01/20 00:01:45;;;;;;;21.50;10.90;;;;;;;1.27;100.00;100964.22;2616262;36;20056;-62
2023/01/20 00:04:13;;;;;;;18.67;9.57;;;;;;;1.45;100.00;100962.47;2615525;36;20054;-61
2023/01/20 00:06:42;;;;;;;19.30;10.63;;;;;;;1.23;100.00;100966.16;2616426;36;20035;-61
2023/01/20 00:09:15;;;;;;;18.27;9.88;;;;;;;1.22;100.00;100965.31;2616151;36;20038;-60
2023/01/20 00:11:47;;;;;;;21.13;10.43;;;;;;;1.33;100.00;100966.59;2616779;36;20423;-59
2023/01/20 00:14:16;;;;;;;25.98;11.32;;;;;;;1.27;100.00;100964.22;2616243;36;20431;-60
2023/01/20 00:16:44;;;;;;;;;;;;;;;1.33;100.00;100971.88;2616551;36;20026;-60
2023/01/20 00:19:14;;;;;;;21.95;11.55;;;;;;;1.38;100.00;100977.81;2616080;36;19950;-61
2023/01/20 00:21:43;;;;;;;21.63;10.50;;;;;;;1.27;100.00;100975.69;2616292;36;20118;-60
2023/01/20 00:24:11;;;;;;;22.70;10.93;;;;;;;1.27;100.00;100978.34;2615771;36;20027;-61
2023/01/20 00:26:39;;;;;;;22.30;10.25;;;;;;;1.31;100.00;100977.25;2616158;36;20034;-61
2023/01/20 00:29:11;;;;;;;19.33;10.27;;;;;;;1.23;100.00;100982.91;2621291;36;20042;-60
2023/01/20 00:31:39;;;;;;;21.48;9.65;;;;;;;1.26;100.00;100981.91;2615766;36;20034;-60
2023/01/20 00:34:08;;;;;;;22.60;10.57;;;;;;;1.16;100.00;100983.28;2612825;36;20064;-61
2023/01/20 00:36:36;;;;;;;20.25;9.70;;;;;;;1.30;100.00;100988.78;2612181;36;20034;-61
2023/01/20 00:39:05;;;;;;;22.23;11.25;;;;;;;1.13;100.00;100988.72;2615779;36;20093;-61
2023/01/20 00:41:34;;;;;;;19.63;9.98;;;;;;;1.14;100.00;100993.09;2616362;36;20034;-61
2023/01/20 00:44:02;;;;;;;25.50;10.80;;;;;;;1.25;100.00;100995.25;2615748;36;20038;-62
2023/01/20 00:46:33;;;;;;;20.83;10.32;;;;;;;1.15;100.00;100994.81;2615420;31;20045;-60
2023/01/20 00:49:02;;;;;;;19.52;10.10;;;;;;;1.11;100.00;101003.84;2616144;36;20053;-61
2023/01/20 00:51:30;;;;;;;20.38;9.30;;;;;;;1.34;100.00;101000.97;2616570;36;20427;-60
2023/01/20 00:53:58;;;;;;;21.30;10.73;;;;;;;1.30;100.00;101004.69;2616044;36;20057;-59
2023/01/20 00:56:27;;;;;;;20.27;9.10;;;;;;;1.26;100.00;101008.44;2615043;36;20103;-61
2023/01/20 00:58:56;;;;;;;21.33;10.33;;;;;;;1.27;100.00;101004.84;2616453;36;20372;-61
2023/01/20 01:01:25;;;;;;;19.15;9.43;;;;;;;1.28;100.00;101009.22;2616426;31;20558;-61
2023/01/20 01:03:56;;;;;;;24.57;10.60;;;;;;;1.38;100.00;101007.88;2615674;31;20061;-61
2023/01/20 01:06:26;;;;;;;23.75;11.60;;;;;;;1.16;100.00;101010.66;2616140;36;20664;-61
2023/01/20 01:08:55;;;;;;;21.45;11.32;;;;;;;1.34;100.00;101013.34;2616468;36;20876;-60
2023/01/20 01:11:24;;;;;;;25.17;10.90;;;;;;;1.30;100.00;101004.69;2616163;36;20143;-62
2023/01/20 01:13:52;;;;;;;21.58;10.77;;;;;;;1.39;100.00;101004.25;2614480;36;20042;-61
2023/01/20 01:16:21;;;;;;;27.55;11.95;;;;;;;1.46;100.00;101012.78;2614761;36;20030;-62
2023/01/20 01:18:49;;;;;;;24.80;11.07;;;;;;;1.32;100.00;101018.75;2613754;36;20424;-61
2023/01/20 01:21:20;;;;;;;27.73;12.52;;;;;;;1.34;100.00;101016.00;2605448;36;20162;-63
2023/01/20 01:23:50;;;;;;;32.13;11.40;;;;;;;1.26;100.00;101019.03;2604550;36;20038;-62
2023/01/20 01:26:19;;;;;;;26.30;10.45;;;;;;;1.52;100.00;101025.75;2606170;36;20059;-62
2023/01/20 01:28:50;;;;;;;22.85;11.40;;;;;;;1.10;100.00;101020.69;2606633;36;20042;-63
2023/01/20 01:31:20;;;;;;;25.50;11.65;;;;;;;1.23;100.00;101032.44;2611804;36;20074;-60
2023/01/20 01:33:49;;;;;;;28.10;13.23;;;;;;;1.37;100.00;101031.78;2615080;36;20067;-61
2023/01/20 01:36:20;;;;;;;28.63;12.25;;;;;;;1.35;100.00;101039.81;2615008;31;20027;-61
2023/01/20 01:38:49;;;;;;;26.50;12.40;;;;;;;1.30;100.00;101036.53;2616148;36;20038;-62
2023/01/20 01:41:20;;;;;;;27.38;12.90;;;;;;;1.39;100.00;101038.72;2614929;39;20448;-61
2023/01/20 01:44:03;;;;;;;27.17;13.32;;;;;;;1.55;100.00;101044.16;2615785;36;20030;-60
2023/01/20 01:46:33;;;;;;;30.23;13.63;;;;;;;1.34;100.00;101043.41;2613584;36;20038;-63
2023/01/20 01:49:04;;;;;;;26.13;11.85;;;;;;;1.43;100.00;101036.81;2615491;36;20405;-62
2023/01/20 01:51:38;;;;;;;30.63;14.13;;;;;;;1.39;100.00;101037.88;2615584;36;20548;-61
2023/01/20 01:54:12;;;;;;;28.80;13.13;;;;;;;1.47;100.00;101037.50;2614845;36;20030;-62
2023/01/20 01:56:43;;;;;;;29.38;13.80;;;;;;;1.37;100.00;101034.41;2615555;31;20038;-63
2023/01/20 01:59:14;;;;;;;30.42;13.07;;;;;;;1.46;100.00;101041.97;2616222;36;20034;-59
2023/01/20 02:01:46;;;;;;;27.88;12.52;;;;;;;1.46;100.00;101047.28;2612164;36;20038;-61
2023/01/20 02:04:16;;;;;;;27.17;13.35;;;;;;;1.32;100.00;101044.41;2614631;36;20126;-61
2023/01/20 02:06:48;;;;;;;;;;;;;;;1.48;100.00;101049.84;2615310;36;20042;-60
2023/01/20 02:09:16;;;;;;;32.25;13.50;;;;;;;1.49;100.00;101044.47;2616353;36;19950;-61
2023/01/20 02:11:47;;;;;;;28.27;14.07;;;;;;;1.43;100.00;101057.16;2614714;36;20038;-61
2023/01/20 02:14:17;;;;;;;32.33;14.65;;;;;;;1.51;100.00;101057.66;2614698;31;20080;-61
2023/01/20 02:16:57;;;;;;;32.03;14.02;;;;;;;1.54;100.00;101062.81;2615485;36;20043;-61
2023/01/20 02:19:48;;;;;;;33.28;13.85;;;;;;;1.35;100.00;101054.88;2613862;36;20077;-60
2023/01/20 02:22:31;;;;;;;33.85;14.93;;;;;;;1.60;100.00;101062.50;2615486;36;20029;-61
2023/01/20 02:25:31;;;;;;;32.33;14.95;;;;;;;1.48;100.00;101060.47;2615203;36;20122;-61
2023/01/20 02:28:09;;;;;;;;;;;;;;;1.54;100.00;101060.16;2615757;31;20034;-59
2023/01/20 02:31:05;;;;;;;36.65;15.80;;;;;;;1.45;100.00;101053.50;2616381;36;19938;-59
2023/01/20 02:33:40;;;;;;;41.40;16.17;;;;;;;1.52;100.00;101059.38;2615180;36;20062;-60
2023/01/20 02:36:12;;;;;;;34.67;14.63;;;;;;;1.52;100.00;101051.44;2616584;31;20034;-59
2023/01/20 02:38:46;;;;;;;33.53;15.40;;;;;;;1.51;100.00;101052.34;2615213;36;20562;-60
2023/01/20 02:41:22;;;;;;;36.42;15.68;;;;;;;1.38;100.00;101055.59;2615023;31;20041;-60
2023/01/20 02:43:59;;;;;;;44.85;17.88;;;;;;;1.40;100.00;101047.56;2614683;36;20034;-62
2023/01/20 02:46:33;;;;;;;37.70;16.80;;;;;;;1.38;100.00;101050.28;2615400;36;20035;-60
2023/01/20 02:49:13;;;;;;;33.22;15.75;;;;;;;1.38;100.00;101055.59;2615944;31;20038;-60
2023/01/20 02:51:46;;;;;;;37.08;16.80;;;;;;;1.34;100.00;101054.00;2613878;36;20439;-60
2023/01/20 02:54:17;;;;;;;36.72;16.83;;;;;;;1.32;100.00;101066.47;2614612;36;20027;-60
2023/01/20 02:56:45;;;;;;;38.13;17.98;;;;;;;1.35;100.00;101061.03;2613923;36;20034;-62
2023/01/20 02:59:17;;;;;;;40.10;18.38;;;;;;;1.29;100.00;101061.31;2614384;36;20049;-59
2023/01/20 03:01:49;;;;;;;42.53;17.73;;;;;;;1.36;100.00;101052.13;2613499;36;20042;-60
2023/01/20 03:04:23;;;;;;;42.53;17.75;;;;;;;1.40;100.00;101058.19;2632602;36;20038;-62
2023/01/20 03:06:55;;;;;;;46.55;20.08;;;;;;;1.33;100.00;101046.97;2615354;36;20034;-62
2023/01/20 03:09:32;;;;;;;39.15;18.30;;;;;;;1.33;100.00;101052.28;2615481;36;20045;-61
2023/01/20 03:12:13;;;;;;;45.20;19.45;;;;;;;1.38;100.00;101052.06;2614758;36;20451;-61
2023/01/20 03:14:42;;;;;;;43.60;19.50;;;;;;;1.34;100.00;101055.78;2615211;31;20448;-61
2023/01/20 03:17:10;;;;;;;40.45;18.67;;;;;;;1.50;100.00;101053.28;2614725;36;20057;-61
2023/01/20 03:19:41;;;;;;;50.90;20.90;;;;;;;1.43;100.00;101062.44;2615394;36;20640;-61
2023/01/20 03:22:10;;;;;;;53.95;21.23;;;;;;;1.53;100.00;101063.75;2615198;36;20042;-60
2023/01/20 03:24:40;;;;;;;44.15;20.35;;;;;;;1.50;100.00;101061.22;2616230;36;20440;-61
2023/01/20 03:27:08;;;;;;;49.63;20.75;;;;;;;1.37;100.00;101059.16;2616546;36;20447;-60
2023/01/20 03:29:37;;;;;;;52.72;22.25;;;;;;;1.42;100.00;101058.09;2614646;36;20038;-62
2023/01/20 03:32:09;;;;;;;51.45;22.05;;;;;;;1.41;100.00;101062.53;2613796;31;20026;-61
2023/01/20 03:34:43;;;;;;;48.13;22.30;;;;;;;1.55;100.00;101070.69;2613054;36;20578;-62
2023/01/20 03:37:17;;;;;;;57.58;22.35;;;;;;;1.35;100.00;101061.03;2613834;36;20042;-62
2023/01/20 03:39:46;;;;;;;56.28;22.30;;;;;;;1.37;100.00;101068.91;2613666;36;20042;-62
2023/01/20 03:42:18;;;;;;;54.78;20.45;;;;;;;1.39;100.00;101070.56;2612941;36;20088;-61
2023/01/20 03:44:59;;;;;;;60.00;22.38;;;;;;;1.40;100.00;101074.09;2615253;36;20712;-62
2023/01/20 03:47:39;;;;;;;58.33;22.52;;;;;;;1.35;100.00;101074.28;2614983;36;20416;-60
2023/01/20 03:50:18;;;;;;;56.20;22.52;;;;;;;1.26;100.00;101080.00;2614283;36;20037;-61
2023/01/20 03:52:54;;;;;;;55.83;23.58;;;;;;;1.18;100.00;101080.38;2615920;36;20039;-62
2023/01/20 03:55:26;;;;;;;62.65;24.13;;;;;;;1.20;100.00;101088.25;2615536;31;20615;-61
2023/01/20 03:58:02;;;;;;;58.05;22.65;;;;;;;1.22;100.00;101087.28;2615231;36;20027;-59
2023/01/20 04:00:33;;;;;;;63.65;23.73;;;;;;;1.50;100.00;101096.59;2615262;36;20121;-60
2023/01/20 04:03:05;;;;;;;67.93;24.63;;;;;;;1.32;100.00;101092.97;2614993;36;20039;-61
2023/01/20 04:05:37;;;;;;;52.03;21.52;;;;;;;1.45;100.00;101095.94;2614339;36;20026;-60
2023/01/20 04:08:09;;;;;;;58.17;22.00;;;;;;;1.31;100.00;101093.06;2615308;36;20026;-62
2023/01/20 04:10:41;;;;;;;64.82;24.67;;;;;;;1.30;100.00;101091.34;2615432;36;20038;-60
2023/01/20 04:13:10;;;;;;;64.55;23.13;;;;;;;1.35;100.00;101092.84;2615967;36;20041;-60
2023/01/20 04:15:43;;;;;;;63.30;25.10;;;;;;;1.39;100.00;101090.94;2614247;36;20041;-61
2023/01/20 04:18:16;;;;;;;74.07;25.05;;;;;;;1.36;100.00;101093.72;2614214;36;20447;-61
2023/01/20 04:20:50;;;;;;;72.25;24.60;;;;;;;1.50;100.00;101087.75;2615668;36;20522;-60
2023/01/20 04:23:24;;;;;;;64.75;25.23;;;;;;;1.35;100.00;101098.16;2615595;31;20055;-61
2023/01/20 04:25:53;;;;;;;64.18;24.75;;;;;;;1.33;100.00;101092.06;2614196;36;20038;-60
2023/01/20 04:28:21;;;;;;;64.05;24.23;;;;;;;1.30;100.00;101089.56;2615616;31;20563;-61
2023/01/20 04:30:49;;;;;;;67.03;26.23;;;;;;;1.35;100.00;101097.28;2615658;36;20027;-61
2023/01/20 04:33:18;;;;;;;63.30;24.85;;;;;;;1.41;100.00;101097.00;2614709;31;20156;-61
2023/01/20 04:35:49;;;;;;;80.38;27.75;;;;;;;1.47;100.00;101087.91;2614846;36;20045;-59
2023/01/20 04:38:18;;;;;;;73.70;27.05;;;;;;;1.47;100.00;101095.88;2614855;31;20034;-60
2023/01/20 04:40:46;;;;;;;64.45;24.73;;;;;;;1.54;100.00;101097.31;2615096;36;20045;-60
2023/01/20 04:43:14;;;;;;;74.70;27.05;;;;;;;1.31;100.00;101093.94;2613602;36;20085;-62
2023/01/20 04:45:43;;;;;;;70.70;24.70;;;;;;;1.33;100.00;101092.06;2615201;36;20038;-60
2023/01/20 04:48:12;;;;;;;77.80;28.33;;;;;;;1.34;100.00;101090.25;2614480;36;20038;-60
2023/01/20 04:50:41;;;;;;;84.30;28.15;;;;;;;1.42;100.00;101092.59;2615550;31;20280;-60
2023/01/20 04:53:17;;;;;;;73.20;25.55;;;;;;;1.43;100.00;101091.63;2614484;36;20038;-61
2023/01/20 04:55:46;;;;;;;73.95;25.90;;;;;;;1.33;100.00;101089.41;2615393;36;20129;-61
2023/01/20 04:58:15;;;;;;;78.63;28.67;;;;;;;1.34;100.00;101093.78;2614592;36;20034;-59
2023/01/20 05:00:43;;;;;;;86.47;29.08;;;;;;;1.33;100.00;101100.03;2615324;36;20148;-61
2023/01/20 05:03:12;;;;;;;77.63;26.75;;;;;;;1.06;100.00;101099.50;2614519;36;20031;-60
2023/01/20 05:05:40;;;;;;;84.68;27.55;;;;;;;1.17;100.00;101099.84;2615368;36;20034;-62
2023/01/20 05:08:08;;;;;;;80.75;27.55;;;;;;;1.07;100.00;101098.56;2614639;36;20030;-60
2023/01/20 05:10:39;;;;;;;86.30;28.05;;;;;;;1.17;100.00;101097.22;2615576;36;21231;-58
2023/01/20 05:13:07;;;;;;;79.80;27.55;;;;;;;1.29;100.00;101105.53;2616286;31;20038;-58
2023/01/20 05:15:37;;;;;;;91.10;27.52;;;;;;;1.31;100.00;101108.97;2614920;31;20027;-59
2023/01/20 05:18:06;;;;;;;89.93;27.55;;;;;;;1.13;100.00;101108.03;2613450;31;20529;-59
2023/01/20 05:20:34;;;;;;;79.97;27.10;;;;;;;1.18;100.00;101108.69;2614381;36;20038;-60
2023/01/20 05:23:02;;;;;;;84.55;27.25;;;;;;;1.35;100.00;101113.22;2615751;36;20026;-61
2023/01/20 05:25:31;;;;;;;83.70;27.50;;;;;;;1.25;100.00;101101.31;2614566;36;20573;-60
2023/01/20 05:28:02;;;;;;;88.97;28.23;;;;;;;1.22;100.00;101112.91;2615286;36;20046;-61
2023/01/20 05:30:31;;;;;;;90.63;27.23;;;;;;;1.26;100.00;101098.56;2615477;36;20027;-62
2023/01/20 05:33:03;;;;;;;88.38;27.88;;;;;;;1.21;100.00;101100.59;2616382;39;20435;-62
2023/01/20 05:35:31;;;;;;;78.95;26.90;;;;;;;1.23;100.00;101098.72;2615230;36;20026;-61
2023/01/20 05:37:59;;;;;;;85.55;25.92;;;;;;;1.28;100.00;101102.03;2615672;36;20038;-60
2023/01/20 05:40:27;;;;;;;86.93;27.40;;;;;;;1.05;100.00;101101.28;2615505;31;20535;-62
2023/01/20 05:42:56;;;;;;;84.05;26.80;;;;;;;1.12;100.00;101107.19;2615981;36;20050;-60
2023/01/20 05:45:27;;;;;;;94.13;28.70;;;;;;;1.19;100.00;101099.78;2615598;36;20042;-61
2023/01/20 05:47:57;;;;;;;82.40;27.77;;;;;;;1.12;100.00;101101.88;2611993;36;20042;-61
2023/01/20 05:50:25;;;;;;;88.90;27.50;;;;;;;1.16;100.00;101100.81;2615720;36;20034;-61
2023/01/20 05:52:54;;;;;;;76.57;26.63;;;;;;;1.21;100.00;101100.59;2615797;36;20444;-62
2023/01/20 05:55:23;;;;;;;83.85;26.95;;;;;;;1.08;100.00;101104.75;2615383;36;20026;-62
2023/01/20 05:57:51;;;;;;;93.30;27.90;;;;;;;1.08;100.00;101110.03;2614479;36;20042;-61
2023/01/20 06:00:21;;;;;;;84.22;26.65;;;;;;;1.11;100.00;101120.50;2616417;31;20030;-62
2023/01/20 06:02:52;;;;;;;85.38;26.70;;;;;;;1.21;100.00;101120.00;2615225;36;20027;-61
2023/01/20 06:05:20;;;;;;;85.82;25.05;;;;;;;1.34;100.00;101127.38;2615240;36;20030;-61
2023/01/20 06:07:48;;;;;;;83.43;25.90;;;;;;;1.46;100.00;101131.28;2614704;36;20038;-60
2023/01/20 06:10:17;;;;;;;82.38;24.40;;;;;;;1.36;100.00;101131.69;2615225;36;20033;-63
2023/01/20 06:12:46;;;;;;;77.45;25.58;;;;;;;1.31;100.00;101122.22;2616723;36;20061;-61
2023/01/20 06:15:14;;;;;;;88.30;25.90;;;;;;;1.28;100.00;101119.72;2616251;36;20120;-60
2023/01/20 06:17:42;;;;;;;83.32;26.05;;;;;;;1.20;100.00;101120.06;2615822;31;20026;-61
2023/01/20 06:20:14;;;;;;;81.90;24.42;;;;;;;1.22;100.00;101129.69;2633609;36;20037;-60
2023/01/20 06:22:42;;;;;;;86.60;27.35;;;;;;;1.23;100.00;101119.94;2616007;36;20053;-61
2023/01/20 06:25:11;;;;;;;84.93;26.30;;;;;;;1.11;100.00;101116.06;2616507;36;20037;-61
2023/01/20 06:27:39;;;;;;;86.97;25.42;;;;;;;1.12;100.00;101127.50;2616526;36;20026;-59
2023/01/20 06:32:53;;;;;;;86.47;26.75;;;;;;;1.38;100.00;101144.88;2619750;31;20685;-60
2023/01/20 06:35:21;;;;;;;81.38;25.48;;;;;;;1.38;100.00;101135.16;2619843;36;20026;-60
2023/01/20 06:37:49;;;;;;;91.40;26.02;;;;;;;1.31;100.00;101132.84;2619953;36;20053;-59
2023/01/20 06:40:19;;;;;;;99.22;28.27;;;;;;;1.21;100.00;101140.38;2619368;36;20145;-60
2023/01/20 06:42:47;;;;;;;97.90;28.92;;;;;;;1.20;100.00;101136.84;2618839;36;20046;-59
2023/01/20 06:45:15;;;;;;;85.50;27.40;;;;;;;1.25;100.00;101139.28;2619013;36;20042;-60
2023/01/20 06:47:44;;;;;;;89.97;24.73;;;;;;;1.33;100.00;101145.09;2617705;36;20504;-59
2023/01/20 06:50:15;;;;;;;88.65;27.65;;;;;;;1.30;100.00;101137.28;2619043;36;20549;-61
2023/01/20 06:52:43;;;;;;;94.15;27.35;;;;;;;1.23;100.00;101146.44;2619616;36;20030;-59
2023/01/20 06:55:11;;;;;;;100.20;27.27;;;;;;;1.34;100.00;101143.31;2619417;36;20042;-60
2023/01/20 06:57:40;;;;;;;105.35;28.08;;;;;;;1.35;100.00;101148.53;2618696;31;20034;-61
2023/01/20 07:00:10;;;;;;;102.53;29.67;;;;;;;1.28;100.00;101154.19;2619133;36;20049;-59
2023/01/20 07:02:38;;;;;;;99.57;27.35;;;;;;;1.31;100.00;101152.28;2619271;36;20450;-62
2023/01/20 07:05:07;;;;;;;94.25;26.83;;;;;;;1.40;100.00;101149.19;2617606;36;20018;-62
2023/01/20 07:07:38;;;;;;;87.50;29.00;;;;;;;1.32;100.00;101153.97;2618428;31;20133;-61
2023/01/20 07:10:07;;;;;;;100.88;27.13;;;;;;;1.25;100.00;101155.19;2618540;36;20045;-60
2023/01/20 07:12:35;;;;;;;;;;;;;;;1.25;100.00;101155.19;2618717;36;20076;-60
2023/01/20 07:15:04;;;;;;;95.88;28.60;;;;;;;1.38;100.00;101161.69;2618320;36;19946;-61
2023/01/20 07:17:32;;;;;;;103.80;28.73;;;;;;;1.54;100.00;101163.63;2617865;36;20037;-61
2023/01/20 07:20:01;;;;;;;102.93;28.38;;;;;;;1.55;100.00;101168.00;2619342;36;20030;-62
2023/01/20 07:22:29;;;;;;;98.05;28.60;;;;;;;1.49;100.00;101173.59;2618110;36;20061;-61
2023/01/20 07:25:00;;;;;;;93.82;27.52;;;;;;;1.31;100.00;101170.84;2619347;36;20060;-62
2023/01/20 07:27:29;;;;;;;90.03;25.35;;;;;;;1.44;100.00;101170.28;2618486;36;20038;-61
2023/01/20 07:29:57;;;;;;;90.78;28.23;;;;;;;1.52;100.00;101176.97;2618405;36;20026;-60
2023/01/20 07:32:25;;;;;;;105.97;30.25;;;;;;;1.50;100.00;101176.19;2618501;31;20041;-62
2023/01/20 07:34:54;;;;;;;84.30;26.63;;;;;;;1.40;100.00;101180.19;2618387;36;20033;-60
2023/01/20 07:37:22;;;;;;;91.43;27.48;;;;;;;1.42;100.00;101183.59;2618181;36;20030;-61
2023/01/20 07:39:50;;;;;;;89.53;27.60;;;;;;;1.46;100.00;101186.97;2619495;36;20034;-60
2023/01/20 07:42:21;;;;;;;92.40;26.90;;;;;;;1.53;100.00;101191.06;2619419;36;20053;-60
2023/01/20 07:44:50;;;;;;;88.20;25.02;;;;;;;1.59;100.00;101182.84;2615370;36;20039;-62
2023/01/20 07:47:18;;;;;;;87.72;28.08;;;;;;;1.51;100.00;101177.88;2613971;36;21029;-61
2023/01/20 07:49:46;;;;;;;84.75;25.13;;;;;;;1.51;100.00;101182.34;2615755;36;20432;-61
2023/01/20 07:52:15;;;;;;;95.55;27.23;;;;;;;1.51;100.00;101187.63;2615383;36;20042;-61
2023/01/20 07:54:46;;;;;;;101.57;30.02;;;;;;;1.39;100.00;101191.72;2615157;36;20042;-61
2023/01/20 07:57:14;;;;;;;80.38;25.33;;;;;;;1.43;100.00;101195.94;2614649;36;20035;-60
2023/01/20 07:59:45;;;;;;;89.07;25.95;;;;;;;1.61;100.00;101198.69;2613353;36;20031;-60
2023/01/20 08:02:13;;;;;;;88.18;28.75;;;;;;;1.55;100.00;101206.00;2615200;36;20039;-61
2023/01/20 08:04:42;;;;;;;85.22;25.00;;;;;;;1.44;100.00;101212.72;2615572;36;20026;-61
2023/01/20 08:07:10;;;;;;;90.30;27.33;;;;;;;1.53;100.00;101209.63;2614410;36;20081;-62
2023/01/20 08:09:40;;;;;;;85.72;26.85;;;;;;;1.47;100.00;101217.88;2613331;36;20046;-61
2023/01/20 08:12:09;;;;;;;96.93;29.27;;;;;;;1.40;100.00;101218.16;2611154;36;20086;-61
2023/01/20 08:14:37;;;;;;;89.82;26.45;;;;;;;1.52;100.00;101221.19;2613169;36;20031;-61
2023/01/20 08:17:08;;;;;;;81.13;26.17;;;;;;;1.53;100.00;101225.56;2615578;31;20034;-61
2023/01/20 08:19:36;;;;;;;88.30;27.38;;;;;;;1.48;100.00;101230.22;2615031;31;20026;-61
2023/01/20 08:22:05;;;;;;;81.55;26.30;;;;;;;1.62;100.00;101232.25;2615570;36;20436;-61
2023/01/20 08:24:33;;;;;;;85.63;27.15;;;;;;;1.60;100.00;101240.28;2616219;36;20065;-59
2023/01/20 08:27:01;;;;;;;85.83;26.60;;;;;;;1.50;100.00;101238.97;2615990;36;20041;-60
2023/01/20 08:29:30;;;;;;;69.90;24.55;;;;;;;1.61;100.00;101247.31;2616425;36;20045;-59
2023/01/20 08:32:01;;;;;;;72.32;25.75;;;;;;;1.45;100.00;101248.94;2616206;36;20528;-59
2023/01/20 08:34:31;;;;;;;88.18;26.05;;;;;;;1.32;100.00;101246.78;2616159;36;20161;-60
2023/01/20 08:37:00;;;;;;;79.10;25.13;;;;;;;1.40;100.00;101250.00;2616009;36;20057;-60
2023/01/20 08:39:28;;;;;;;77.05;23.25;;;;;;;1.44;100.00;101255.16;2616022;36;20027;-61
2023/01/20 08:41:56;;;;;;;75.35;24.58;;;;;;;1.36;100.00;101253.69;2615794;36;20037;-60
2023/01/20 08:44:25;;;;;;;71.05;23.30;;;;;;;1.34;100.00;101255.56;2616198;36;20539;-62
2023/01/20 08:46:56;;;;;;;73.50;23.80;;;;;;;1.31;100.00;101255.69;2616759;36;20467;-59
2023/01/20 08:49:25;;;;;;;69.15;24.05;;;;;;;1.35;100.00;101259.06;2615027;36;20034;-60
2023/01/20 08:51:56;;;;;;;74.47;24.13;;;;;;;1.40;100.00;101252.63;2614888;36;20554;-61
2023/01/20 08:54:24;;;;;;;71.00;23.42;;;;;;;1.51;100.00;101260.13;2614534;36;20567;-61
2023/01/20 08:56:53;;;;;;;66.93;23.10;;;;;;;1.56;100.00;101262.56;2616067;36;20023;-60
2023/01/20 08:59:22;;;;;;;66.85;24.23;;;;;;;1.55;100.00;101268.81;2615798;36;20035;-61
2023/01/20 09:01:50;;;;;;;69.80;22.63;;;;;;;1.61;100.00;101265.03;2616129;36;20030;-61
2023/01/20 09:04:18;;;;;;;66.85;23.63;;;;;;;1.43;100.00;101269.34;2614956;36;20034;-62
2023/01/20 09:06:49;;;;;;;66.75;21.83;;;;;;;1.58;100.00;101273.97;2613790;36;20041;-61
2023/01/20 09:09:23;;;;;;;59.75;22.45;;;;;;;1.58;100.00;101276.63;2615684;36;20447;-62
2023/01/20 09:11:52;;;;;;;60.47;23.40;;;;;;;1.45;100.00;101278.97;2615341;36;20030;-60
2023/01/20 09:14:21;;;;;;;62.97;22.25;;;;;;;1.53;100.00;101281.25;2614279;36;20042;-61
2023/01/20 09:16:50;;;;;;;60.88;21.83;;;;;;;1.54;100.00;101285.66;2616290;36;20045;-60
2023/01/20 09:19:18;;;;;;;58.50;21.70;;;;;;;1.46;100.00;101288.66;2611879;36;20057;-58
2023/01/20 09:21:47;;;;;;;67.18;22.88;;;;;;;1.46;100.00;101287.75;2615427;36;20038;-60
2023/01/20 09:24:16;;;;;;;59.13;21.98;;;;;;;1.57;100.00;101290.81;2614649;36;20459;-58
2023/01/20 09:26:48;;;;;;;;;;;;;;;1.58;100.00;101296.06;2615667;36;20069;-58
2023/01/20 09:29:18;;;;;;;64.45;23.45;;;;;;;1.71;100.00;101285.78;2615182;36;19939;-60
2023/01/20 09:31:51;;;;;;;59.30;21.42;;;;;;;1.77;100.00;101294.38;2614896;36;20034;-60
2023/01/20 09:34:23;;;;;;;63.35;22.10;;;;;;;1.75;100.00;101297.09;2614820;36;20038;-58
2023/01/20 09:36:54;;;;;;;62.78;21.73;;;;;;;1.78;100.00;101286.34;2614050;36;20057;-58
2023/01/20 09:45:23;;;;;;;63.25;22.77;;;;;;;1.64;100.00;101310.84;2614265;36;20030;-59
2023/01/20 09:47:52;;;;;;;;;;;;;;;1.71;100.00;101306.16;2616111;31;20461;-61
2023/01/20 09:53:38;;;;;;;58.83;22.23;;;;;;;1.71;100.00;101311.44;2615312;36;20035;-59
2023/01/20 09:56:15;;;;;;;61.88;19.42;;;;;;;1.69;100.00;101324.78;2615458;36;20065;-60
2023/01/20 09:58:51;;;;;;;66.90;21.52;;;;;;;1.79;100.00;101324.38;2614555;36;20035;-59
2023/01/20 10:01:29;;;;;;;63.03;22.48;;;;;;;1.57;100.00;101335.91;2614956;36;20030;-60
2023/01/20 10:04:02;;;;;;;58.03;21.50;;;;;;;1.57;100.00;101331.47;2614542;36;20662;-58
2023/01/20 10:06:36;;;;;;;67.00;22.48;;;;;;;1.57;100.00;101336.78;2612936;36;20034;-58
2023/01/20 10:09:13;;;;;;;64.38;21.55;;;;;;;1.53;100.00;101342.28;2614838;31;20041;-60
2023/01/20 10:11:44;;;;;;;61.95;21.92;;;;;;;1.60;100.00;101340.25;2613765;36;20034;-57
2023/01/20 10:14:24;;;;;;;64.20;20.33;;;;;;;1.67;100.00;101333.75;2614355;36;20539;-59
2023/01/20 10:16:59;;;;;;;56.72;21.13;;;;;;;1.75;100.00;101336.91;2614194;36;20042;-57
2023/01/20 10:19:36;;;;;;;63.05;21.23;;;;;;;1.78;100.00;101334.09;2614330;36;20030;-58
2023/01/20 10:22:11;;;;;;;60.13;21.83;;;;;;;1.71;100.00;101335.34;2614610;36;20035;-58
2023/01/20 10:24:44;;;;;;;62.20;22.08;;;;;;;1.72;100.00;101329.97;2614598;36;20026;-58
2023/01/20 10:27:13;;;;;;;59.50;21.80;;;;;;;1.80;100.00;101337.56;2614891;36;20027;-57
2023/01/20 10:29:51;;;;;;;57.78;21.15;;;;;;;1.87;100.00;101338.16;2615724;36;20041;-57
2023/01/20 10:32:35;;;;;;;65.18;20.70;;;;;;;1.89;100.00;101342.47;2615351;36;20042;-58
2023/01/20 10:35:14;;;;;;;52.97;20.52;;;;;;;1.69;100.00;101340.72;2614614;36;20031;-55
2023/01/20 10:37:42;;;;;;;53.65;20.75;;;;;;;1.77;100.00;101334.19;2615222;36;20547;-60
2023/01/20 10:40:26;;;;;;;58.80;19.98;;;;;;;1.73;100.00;101331.66;2612953;31;20038;-56
2023/01/20 10:42:59;;;;;;;53.45;19.65;;;;;;;1.95;100.00;101327.22;2614286;36;20034;-58
2023/01/20 10:45:39;;;;;;;50.45;19.90;;;;;;;2.12;100.00;101332.63;2614266;36;20061;-59
2023/01/20 10:48:21;;;;;;;59.28;19.77;;;;;;;2.24;100.00;101325.88;2612491;36;20041;-56
2023/01/20 10:50:57;;;;;;;58.53;19.73;;;;;;;2.26;100.00;101335.47;2615137;36;20381;-56
2023/01/20 10:53:53;;;;;;;52.35;19.52;;;;;;;2.19;100.00;101335.84;2613996;36;20053;-58
2023/01/20 10:56:38;;;;;;;55.05;20.05;;;;;;;2.32;100.00;101338.81;2614608;31;20121;-56
2023/01/20 10:59:13;;;;;;;48.45;18.77;;;;;;;2.19;100.00;101328.72;2614296;31;20034;-58
2023/01/20 11:01:46;;;;;;;59.33;19.38;;;;;;;2.11;100.00;101338.84;2614216;36;20089;-59
2023/01/20 11:04:21;;;;;;;49.72;18.23;;;;;;;2.16;100.00;101339.50;2614666;36;20904;-56
2023/01/20 11:06:55;;;;;;;56.28;20.58;;;;;;;2.26;100.00;101335.47;2615364;36;20436;-59
2023/01/20 11:09:31;;;;;;;47.28;19.50;;;;;;;2.22;100.00;101346.31;2615399;36;20435;-58
2023/01/20 11:12:00;;;;;;;52.25;20.38;;;;;;;2.15;100.00;101344.88;2614230;36;20037;-59
2023/01/20 11:14:30;;;;;;;49.72;18.33;;;;;;;2.22;100.00;101344.53;2614305;36;20039;-58
2023/01/20 11:17:03;;;;;;;;;;;;;;;2.35;100.00;101343.97;2614364;36;20038;-58
2023/01/20 11:19:47;;;;;;;51.83;19.60;;;;;;;2.39;100.00;101335.78;2614794;36;19950;-58
2023/01/20 11:22:21;;;;;;;52.08;20.38;;;;;;;2.51;100.00;101338.81;2613779;36;20030;-58
2023/01/20 11:24:50;;;;;;;50.45;19.23;;;;;;;2.50;100.00;101339.72;2614138;31;20057;-58
2023/01/20 11:27:21;;;;;;;54.90;21.30;;;;;;;2.45;100.00;101330.16;2614212;36;20045;-58
2023/01/20 11:29:53;;;;;;;51.67;20.15;;;;;;;2.48;100.00;101325.66;2615306;36;20045;-58
2023/01/20 11:32:35;;;;;;;58.00;21.70;;;;;;;2.56;100.00;101320.84;2614814;31;20562;-56
2023/01/20 11:35:20;;;;;;;55.15;20.55;;;;;;;2.68;100.00;101325.56;2615514;36;20065;-58
2023/01/20 11:37:49;;;;;;;52.25;20.27;;;;;;;2.83;100.00;101317.78;2614539;31;20023;-58
2023/01/20 11:40:21;;;;;;;57.20;19.85;;;;;;;2.76;100.00;101318.06;2615774;36;20439;-59
2023/01/20 11:42:52;;;;;;;54.47;20.73;;;;;;;2.65;100.00;101317.75;2615880;36;20034;-59